Terminal Aerodrome Forecast
Issued by NWS

Home | Current Version | Previous Version | Text Only | Print | Product List | Glossary On
Versions: 1 2 3 4 5 6 7 8 9 10 11 12 13 14 15
574
FTUS46 KLOX 291130
TAFPMD
TAF
KPMD 291130Z 2912/3012 20008KT P6SM SCT200
     FM291400 VRB03KT P6SM SCT200
     FM291700 27012KT P6SM SCT200
     FM292000 28022G32KT P6SM SCT200
     FM300300 26015KT P6SM SCT200=

USA.gov is the U.S. government's official web portal to all federal, state and local government web resources and services.